sensor_id;sensor_type;location;lat;lon;timestamp;P1;durP1;ratioP1;P2;durP2;ratioP2
47365;SDS011;33105;47.964;7.982;2023-06-26T00:02:36;6.43;;;4.90;;
47365;SDS011;33105;47.964;7.982;2023-06-26T00:05:37;6.65;;;4.90;;
47365;SDS011;33105;47.964;7.982;2023-06-26T00:08:38;8.25;;;5.45;;
47365;SDS011;33105;47.964;7.982;2023-06-26T00:11:40;5.47;;;4.97;;
47365;SDS011;33105;47.964;7.982;2023-06-26T00:14:41;6.50;;;5.30;;
47365;SDS011;33105;47.964;7.982;2023-06-26T00:17:42;7.63;;;5.00;;
47365;SDS011;33105;47.964;7.982;2023-06-26T00:20:43;6.80;;;4.72;;
47365;SDS011;33105;47.964;7.982;2023-06-26T00:23:45;7.13;;;5.20;;
47365;SDS011;33105;47.964;7.982;2023-06-26T00:26:47;7.15;;;5.55;;
47365;SDS011;33105;47.964;7.982;2023-06-26T00:29:49;5.93;;;4.88;;
47365;SDS011;33105;47.964;7.982;2023-06-26T00:32:51;6.28;;;5.07;;
47365;SDS011;33105;47.964;7.982;2023-06-26T00:35:53;7.82;;;5.45;;
47365;SDS011;33105;47.964;7.982;2023-06-26T00:38:54;5.60;;;5.00;;
47365;SDS011;33105;47.964;7.982;2023-06-26T00:41:55;7.50;;;5.68;;
47365;SDS011;33105;47.964;7.982;2023-06-26T00:44:56;6.53;;;5.05;;
47365;SDS011;33105;47.964;7.982;2023-06-26T00:47:58;4.80;;;4.30;;
47365;SDS011;33105;47.964;7.982;2023-06-26T00:50:59;7.97;;;5.28;;
47365;SDS011;33105;47.964;7.982;2023-06-26T00:54:00;7.28;;;5.22;;
47365;SDS011;33105;47.964;7.982;2023-06-26T00:57:03;6.63;;;5.07;;
47365;SDS011;33105;47.964;7.982;2023-06-26T01:00:05;6.28;;;5.03;;
47365;SDS011;33105;47.964;7.982;2023-06-26T01:03:06;5.72;;;4.80;;
47365;SDS011;33105;47.964;7.982;2023-06-26T01:06:08;6.50;;;5.00;;
47365;SDS011;33105;47.964;7.982;2023-06-26T01:09:12;6.60;;;4.75;;
47365;SDS011;33105;47.964;7.982;2023-06-26T01:12:14;7.13;;;4.90;;
47365;SDS011;33105;47.964;7.982;2023-06-26T01:15:15;5.68;;;5.07;;
47365;SDS011;33105;47.964;7.982;2023-06-26T01:18:17;5.53;;;4.82;;
47365;SDS011;33105;47.964;7.982;2023-06-26T01:21:18;5.88;;;5.10;;
47365;SDS011;33105;47.964;7.982;2023-06-26T01:24:22;9.18;;;5.10;;
47365;SDS011;33105;47.964;7.982;2023-06-26T01:27:28;7.05;;;5.10;;
47365;SDS011;33105;47.964;7.982;2023-06-26T01:30:34;6.15;;;5.35;;
47365;SDS011;33105;47.964;7.982;2023-06-26T01:33:39;9.02;;;5.38;;
47365;SDS011;33105;47.964;7.982;2023-06-26T01:36:41;6.10;;;5.18;;
47365;SDS011;33105;47.964;7.982;2023-06-26T01:39:42;5.45;;;4.95;;
47365;SDS011;33105;47.964;7.982;2023-06-26T01:42:46;6.47;;;5.50;;
47365;SDS011;33105;47.964;7.982;2023-06-26T01:45:48;8.13;;;5.20;;
47365;SDS011;33105;47.964;7.982;2023-06-26T01:48:57;7.47;;;4.90;;
47365;SDS011;33105;47.964;7.982;2023-06-26T01:52:11;6.63;;;5.22;;
47365;SDS011;33105;47.964;7.982;2023-06-26T01:55:17;10.00;;;5.28;;
47365;SDS011;33105;47.964;7.982;2023-06-26T01:58:23;6.75;;;5.35;;
47365;SDS011;33105;47.964;7.982;2023-06-26T02:01:26;7.55;;;5.10;;
47365;SDS011;33105;47.964;7.982;2023-06-26T02:04:27;9.25;;;5.60;;
47365;SDS011;33105;47.964;7.982;2023-06-26T02:07:28;6.15;;;5.35;;
47365;SDS011;33105;47.964;7.982;2023-06-26T02:10:30;7.93;;;4.88;;
47365;SDS011;33105;47.964;7.982;2023-06-26T02:13:31;11.55;;;5.53;;
47365;SDS011;33105;47.964;7.982;2023-06-26T02:16:32;5.68;;;4.97;;
47365;SDS011;33105;47.964;7.982;2023-06-26T02:19:34;5.65;;;5.03;;
47365;SDS011;33105;47.964;7.982;2023-06-26T02:22:35;6.15;;;5.03;;
47365;SDS011;33105;47.964;7.982;2023-06-26T02:25:37;5.68;;;5.13;;
47365;SDS011;33105;47.964;7.982;2023-06-26T02:28:38;6.00;;;5.07;;
47365;SDS011;33105;47.964;7.982;2023-06-26T02:31:39;5.72;;;4.70;;
47365;SDS011;33105;47.964;7.982;2023-06-26T02:34:40;6.22;;;5.03;;
47365;SDS011;33105;47.964;7.982;2023-06-26T02:37:41;5.93;;;4.95;;
47365;SDS011;33105;47.964;7.982;2023-06-26T02:40:43;8.23;;;4.95;;
47365;SDS011;33105;47.964;7.982;2023-06-26T02:43:46;7.68;;;5.28;;
47365;SDS011;33105;47.964;7.982;2023-06-26T02:46:47;7.25;;;4.82;;
47365;SDS011;33105;47.964;7.982;2023-06-26T02:49:49;5.50;;;5.00;;
47365;SDS011;33105;47.964;7.982;2023-06-26T02:52:50;6.47;;;4.95;;
47365;SDS011;33105;47.964;7.982;2023-06-26T02:55:55;5.40;;;4.65;;
47365;SDS011;33105;47.964;7.982;2023-06-26T02:58:56;8.15;;;5.10;;
47365;SDS011;33105;47.964;7.982;2023-06-26T03:01:58;6.28;;;4.97;;
47365;SDS011;33105;47.964;7.982;2023-06-26T03:05:07;6.50;;;4.95;;
47365;SDS011;33105;47.964;7.982;2023-06-26T03:08:09;5.72;;;4.75;;
47365;SDS011;33105;47.964;7.982;2023-06-26T03:11:10;8.40;;;5.00;;
47365;SDS011;33105;47.964;7.982;2023-06-26T03:14:13;5.90;;;5.30;;
47365;SDS011;33105;47.964;7.982;2023-06-26T03:17:14;6.22;;;4.57;;
47365;SDS011;33105;47.964;7.982;2023-06-26T03:20:18;5.60;;;5.00;;
47365;SDS011;33105;47.964;7.982;2023-06-26T03:23:26;5.30;;;4.40;;
47365;SDS011;33105;47.964;7.982;2023-06-26T03:26:27;8.10;;;5.43;;
47365;SDS011;33105;47.964;7.982;2023-06-26T03:29:30;8.73;;;5.00;;
47365;SDS011;33105;47.964;7.982;2023-06-26T03:32:31;9.02;;;5.00;;
47365;SDS011;33105;47.964;7.982;2023-06-26T03:35:33;7.00;;;5.32;;
47365;SDS011;33105;47.964;7.982;2023-06-26T03:38:34;5.50;;;4.82;;
47365;SDS011;33105;47.964;7.982;2023-06-26T03:41:36;6.75;;;4.60;;
47365;SDS011;33105;47.964;7.982;2023-06-26T03:44:37;6.50;;;4.80;;
47365;SDS011;33105;47.964;7.982;2023-06-26T03:47:39;5.65;;;4.63;;
47365;SDS011;33105;47.964;7.982;2023-06-26T03:50:41;5.85;;;5.15;;
47365;SDS011;33105;47.964;7.982;2023-06-26T03:53:42;7.07;;;5.28;;
47365;SDS011;33105;47.964;7.982;2023-06-26T03:56:43;5.43;;;4.70;;
47365;SDS011;33105;47.964;7.982;2023-06-26T03:59:44;6.72;;;4.97;;
47365;SDS011;33105;47.964;7.982;2023-06-26T04:02:46;8.57;;;5.10;;
47365;SDS011;33105;47.964;7.982;2023-06-26T04:05:47;6.45;;;5.22;;
47365;SDS011;33105;47.964;7.982;2023-06-26T04:08:49;6.00;;;4.90;;
47365;SDS011;33105;47.964;7.982;2023-06-26T04:11:51;7.20;;;4.47;;
47365;SDS011;33105;47.964;7.982;2023-06-26T04:14:52;8.00;;;4.97;;
47365;SDS011;33105;47.964;7.982;2023-06-26T04:17:53;5.40;;;4.55;;
47365;SDS011;33105;47.964;7.982;2023-06-26T04:21:05;5.88;;;4.85;;
47365;SDS011;33105;47.964;7.982;2023-06-26T04:24:09;8.48;;;4.75;;
47365;SDS011;33105;47.964;7.982;2023-06-26T04:27:10;6.32;;;5.18;;
47365;SDS011;33105;47.964;7.982;2023-06-26T04:30:11;5.75;;;4.53;;
47365;SDS011;33105;47.964;7.982;2023-06-26T04:33:13;5.28;;;4.75;;
47365;SDS011;33105;47.964;7.982;2023-06-26T04:36:16;6.47;;;5.03;;
47365;SDS011;33105;47.964;7.982;2023-06-26T04:39:18;7.57;;;4.82;;
47365;SDS011;33105;47.964;7.982;2023-06-26T04:42:20;5.30;;;4.80;;
47365;SDS011;33105;47.964;7.982;2023-06-26T04:45:22;7.78;;;4.50;;
47365;SDS011;33105;47.964;7.982;2023-06-26T04:48:23;5.43;;;4.90;;
47365;SDS011;33105;47.964;7.982;2023-06-26T04:51:25;7.25;;;4.90;;
47365;SDS011;33105;47.964;7.982;2023-06-26T04:54:27;5.57;;;4.70;;
47365;SDS011;33105;47.964;7.982;2023-06-26T04:57:29;5.55;;;4.95;;
47365;SDS011;33105;47.964;7.982;2023-06-26T05:00:30;6.00;;;4.45;;
47365;SDS011;33105;47.964;7.982;2023-06-26T05:03:32;6.03;;;4.95;;
47365;SDS011;33105;47.964;7.982;2023-06-26T05:06:33;5.45;;;4.80;;
47365;SDS011;33105;47.964;7.982;2023-06-26T05:09:35;8.23;;;4.72;;
47365;SDS011;33105;47.964;7.982;2023-06-26T05:12:36;7.43;;;4.93;;
47365;SDS011;33105;47.964;7.982;2023-06-26T05:15:37;6.45;;;5.15;;
47365;SDS011;33105;47.964;7.982;2023-06-26T05:18:38;6.10;;;5.13;;
47365;SDS011;33105;47.964;7.982;2023-06-26T05:21:40;5.80;;;4.65;;
47365;SDS011;33105;47.964;7.982;2023-06-26T05:24:42;6.22;;;5.00;;
47365;SDS011;33105;47.964;7.982;2023-06-26T05:27:47;6.28;;;4.90;;
47365;SDS011;33105;47.964;7.982;2023-06-26T05:30:49;6.25;;;5.20;;
47365;SDS011;33105;47.964;7.982;2023-06-26T05:33:50;5.60;;;4.43;;
47365;SDS011;33105;47.964;7.982;2023-06-26T05:36:57;8.43;;;5.03;;
47365;SDS011;33105;47.964;7.982;2023-06-26T05:39:59;7.55;;;4.90;;
47365;SDS011;33105;47.964;7.982;2023-06-26T05:43:02;5.43;;;4.93;;
47365;SDS011;33105;47.964;7.982;2023-06-26T05:46:03;6.53;;;4.80;;
47365;SDS011;33105;47.964;7.982;2023-06-26T05:49:05;5.95;;;4.78;;
47365;SDS011;33105;47.964;7.982;2023-06-26T05:52:06;6.85;;;5.22;;
47365;SDS011;33105;47.964;7.982;2023-06-26T05:55:08;5.75;;;5.05;;
47365;SDS011;33105;47.964;7.982;2023-06-26T05:58:10;7.30;;;5.18;;
47365;SDS011;33105;47.964;7.982;2023-06-26T06:01:12;7.47;;;5.38;;
47365;SDS011;33105;47.964;7.982;2023-06-26T06:04:13;7.75;;;5.07;;
47365;SDS011;33105;47.964;7.982;2023-06-26T06:07:14;6.07;;;5.00;;
47365;SDS011;33105;47.964;7.982;2023-06-26T06:10:16;5.60;;;4.95;;
47365;SDS011;33105;47.964;7.982;2023-06-26T06:13:17;7.53;;;5.13;;
47365;SDS011;33105;47.964;7.982;2023-06-26T06:16:19;5.30;;;4.75;;
47365;SDS011;33105;47.964;7.982;2023-06-26T06:19:20;6.07;;;5.18;;
47365;SDS011;33105;47.964;7.982;2023-06-26T06:22:21;6.90;;;5.28;;
47365;SDS011;33105;47.964;7.982;2023-06-26T06:25:22;5.65;;;4.40;;
47365;SDS011;33105;47.964;7.982;2023-06-26T06:28:24;5.60;;;4.53;;
47365;SDS011;33105;47.964;7.982;2023-06-26T06:31:25;7.03;;;5.32;;
47365;SDS011;33105;47.964;7.982;2023-06-26T06:34:29;9.55;;;5.22;;
47365;SDS011;33105;47.964;7.982;2023-06-26T06:37:30;6.05;;;4.80;;
47365;SDS011;33105;47.964;7.982;2023-06-26T06:40:32;5.32;;;4.82;;
47365;SDS011;33105;47.964;7.982;2023-06-26T06:43:33;6.10;;;5.25;;
47365;SDS011;33105;47.964;7.982;2023-06-26T06:46:35;9.70;;;5.68;;
47365;SDS011;33105;47.964;7.982;2023-06-26T06:49:36;7.80;;;5.57;;
47365;SDS011;33105;47.964;7.982;2023-06-26T06:52:38;7.05;;;5.43;;
47365;SDS011;33105;47.964;7.982;2023-06-26T06:55:41;5.93;;;5.30;;
47365;SDS011;33105;47.964;7.982;2023-06-26T06:58:42;10.50;;;5.93;;
47365;SDS011;33105;47.964;7.982;2023-06-26T07:01:43;7.35;;;6.13;;
47365;SDS011;33105;47.964;7.982;2023-06-26T07:04:44;7.00;;;6.32;;
47365;SDS011;33105;47.964;7.982;2023-06-26T07:07:45;7.10;;;6.28;;
47365;SDS011;33105;47.964;7.982;2023-06-26T07:10:47;7.18;;;6.13;;
47365;SDS011;33105;47.964;7.982;2023-06-26T07:13:48;9.23;;;5.43;;
47365;SDS011;33105;47.964;7.982;2023-06-26T07:16:49;6.82;;;5.68;;
47365;SDS011;33105;47.964;7.982;2023-06-26T07:19:50;6.85;;;5.70;;
47365;SDS011;33105;47.964;7.982;2023-06-26T07:22:52;9.23;;;5.25;;
47365;SDS011;33105;47.964;7.982;2023-06-26T07:25:54;5.97;;;4.90;;
47365;SDS011;33105;47.964;7.982;2023-06-26T07:28:55;5.53;;;4.93;;
47365;SDS011;33105;47.964;7.982;2023-06-26T07:31:57;6.93;;;5.28;;
47365;SDS011;33105;47.964;7.982;2023-06-26T07:34:58;10.18;;;5.05;;
47365;SDS011;33105;47.964;7.982;2023-06-26T07:38:00;10.82;;;4.82;;
47365;SDS011;33105;47.964;7.982;2023-06-26T07:41:01;8.35;;;5.35;;
47365;SDS011;33105;47.964;7.982;2023-06-26T07:44:03;8.55;;;5.30;;
47365;SDS011;33105;47.964;7.982;2023-06-26T07:47:04;7.05;;;4.97;;
47365;SDS011;33105;47.964;7.982;2023-06-26T07:50:05;8.32;;;5.38;;
47365;SDS011;33105;47.964;7.982;2023-06-26T07:53:07;8.43;;;5.35;;
47365;SDS011;33105;47.964;7.982;2023-06-26T07:56:08;6.72;;;5.05;;
47365;SDS011;33105;47.964;7.982;2023-06-26T07:59:09;5.30;;;4.70;;
47365;SDS011;33105;47.964;7.982;2023-06-26T08:02:11;5.65;;;4.97;;
47365;SDS011;33105;47.964;7.982;2023-06-26T08:05:12;15.30;;;5.50;;
47365;SDS011;33105;47.964;7.982;2023-06-26T08:08:13;5.55;;;4.80;;
47365;SDS011;33105;47.964;7.982;2023-06-26T08:11:14;5.38;;;4.88;;
47365;SDS011;33105;47.964;7.982;2023-06-26T08:14:16;5.82;;;4.85;;
47365;SDS011;33105;47.964;7.982;2023-06-26T08:17:17;6.75;;;4.38;;
47365;SDS011;33105;47.964;7.982;2023-06-26T08:20:18;7.30;;;4.90;;
47365;SDS011;33105;47.964;7.982;2023-06-26T08:23:20;9.70;;;5.03;;
47365;SDS011;33105;47.964;7.982;2023-06-26T08:26:23;7.40;;;5.18;;
47365;SDS011;33105;47.964;7.982;2023-06-26T08:29:24;7.68;;;5.07;;
47365;SDS011;33105;47.964;7.982;2023-06-26T08:32:25;6.72;;;4.80;;
47365;SDS011;33105;47.964;7.982;2023-06-26T08:35:26;8.18;;;4.90;;
47365;SDS011;33105;47.964;7.982;2023-06-26T08:38:28;5.65;;;4.97;;
47365;SDS011;33105;47.964;7.982;2023-06-26T08:41:29;9.38;;;5.03;;
47365;SDS011;33105;47.964;7.982;2023-06-26T08:44:30;5.45;;;4.95;;
47365;SDS011;33105;47.964;7.982;2023-06-26T08:47:32;7.68;;;4.45;;
47365;SDS011;33105;47.964;7.982;2023-06-26T08:50:35;5.70;;;5.10;;
47365;SDS011;33105;47.964;7.982;2023-06-26T08:56:55;7.22;;;4.95;;
47365;SDS011;33105;47.964;7.982;2023-06-26T08:59:58;5.95;;;4.97;;
47365;SDS011;33105;47.964;7.982;2023-06-26T09:03:00;4.82;;;4.40;;
47365;SDS011;33105;47.964;7.982;2023-06-26T09:06:04;8.00;;;4.97;;
47365;SDS011;33105;47.964;7.982;2023-06-26T09:09:05;6.55;;;4.68;;
47365;SDS011;33105;47.964;7.982;2023-06-26T09:12:06;6.72;;;4.68;;
47365;SDS011;33105;47.964;7.982;2023-06-26T09:15:09;8.00;;;4.93;;
47365;SDS011;33105;47.964;7.982;2023-06-26T09:18:11;10.13;;;5.22;;
47365;SDS011;33105;47.964;7.982;2023-06-26T09:21:13;9.18;;;5.45;;
47365;SDS011;33105;47.964;7.982;2023-06-26T09:24:15;7.60;;;4.88;;
47365;SDS011;33105;47.964;7.982;2023-06-26T09:27:17;6.05;;;5.07;;
47365;SDS011;33105;47.964;7.982;2023-06-26T09:30:18;5.45;;;4.95;;
47365;SDS011;33105;47.964;7.982;2023-06-26T09:33:20;7.00;;;5.90;;
47365;SDS011;33105;47.964;7.982;2023-06-26T09:36:22;8.00;;;5.10;;
47365;SDS011;33105;47.964;7.982;2023-06-26T09:39:24;14.57;;;5.95;;
47365;SDS011;33105;47.964;7.982;2023-06-26T09:42:25;11.85;;;5.68;;
47365;SDS011;33105;47.964;7.982;2023-06-26T09:45:26;5.88;;;5.28;;
47365;SDS011;33105;47.964;7.982;2023-06-26T09:48:28;9.40;;;6.05;;
47365;SDS011;33105;47.964;7.982;2023-06-26T09:51:40;12.68;;;6.50;;
47365;SDS011;33105;47.964;7.982;2023-06-26T09:54:42;10.15;;;5.60;;
47365;SDS011;33105;47.964;7.982;2023-06-26T09:57:47;9.15;;;5.97;;
47365;SDS011;33105;47.964;7.982;2023-06-26T10:00:50;16.10;;;6.15;;
47365;SDS011;33105;47.964;7.982;2023-06-26T10:03:53;11.23;;;5.82;;
47365;SDS011;33105;47.964;7.982;2023-06-26T10:06:55;10.73;;;6.07;;
47365;SDS011;33105;47.964;7.982;2023-06-26T10:09:57;10.90;;;5.93;;
47365;SDS011;33105;47.964;7.982;2023-06-26T10:13:01;9.77;;;6.25;;
47365;SDS011;33105;47.964;7.982;2023-06-26T10:16:08;13.00;;;6.10;;
47365;SDS011;33105;47.964;7.982;2023-06-26T10:19:12;8.45;;;6.05;;
47365;SDS011;33105;47.964;7.982;2023-06-26T10:22:15;9.02;;;6.32;;
47365;SDS011;33105;47.964;7.982;2023-06-26T10:25:18;12.52;;;6.03;;
47365;SDS011;33105;47.964;7.982;2023-06-26T10:28:20;10.95;;;5.97;;
47365;SDS011;33105;47.964;7.982;2023-06-26T10:31:24;6.93;;;6.22;;
47365;SDS011;33105;47.964;7.982;2023-06-26T10:34:27;9.57;;;6.97;;
47365;SDS011;33105;47.964;7.982;2023-06-26T10:38:29;12.57;;;6.32;;
47365;SDS011;33105;47.964;7.982;2023-06-26T10:41:10;11.65;;;6.28;;
47365;SDS011;33105;47.964;7.982;2023-06-26T10:44:16;8.48;;;6.53;;
47365;SDS011;33105;47.964;7.982;2023-06-26T10:47:30;9.77;;;6.53;;
47365;SDS011;33105;47.964;7.982;2023-06-26T10:50:33;7.90;;;6.22;;
47365;SDS011;33105;47.964;7.982;2023-06-26T10:53:38;6.68;;;6.00;;
47365;SDS011;33105;47.964;7.982;2023-06-26T10:59:47;10.82;;;6.20;;
47365;SDS011;33105;47.964;7.982;2023-06-26T11:02:48;8.35;;;6.63;;
47365;SDS011;33105;47.964;7.982;2023-06-26T11:06:08;9.05;;;6.18;;
47365;SDS011;33105;47.964;7.982;2023-06-26T11:09:11;11.18;;;6.80;;
47365;SDS011;33105;47.964;7.982;2023-06-26T11:12:34;9.80;;;7.00;;
47365;SDS011;33105;47.964;7.982;2023-06-26T11:15:36;15.35;;;6.88;;
47365;SDS011;33105;47.964;7.982;2023-06-26T11:18:38;10.65;;;6.43;;
47365;SDS011;33105;47.964;7.982;2023-06-26T11:21:40;9.13;;;6.40;;
47365;SDS011;33105;47.964;7.982;2023-06-26T11:24:41;10.35;;;6.57;;
47365;SDS011;33105;47.964;7.982;2023-06-26T11:27:44;8.77;;;6.05;;
47365;SDS011;33105;47.964;7.982;2023-06-26T11:30:45;9.40;;;6.05;;
47365;SDS011;33105;47.964;7.982;2023-06-26T11:33:46;6.93;;;5.85;;
47365;SDS011;33105;47.964;7.982;2023-06-26T11:36:48;8.45;;;6.30;;
47365;SDS011;33105;47.964;7.982;2023-06-26T11:39:50;9.90;;;5.95;;
47365;SDS011;33105;47.964;7.982;2023-06-26T11:42:52;12.63;;;6.43;;
47365;SDS011;33105;47.964;7.982;2023-06-26T11:45:54;9.55;;;6.35;;
47365;SDS011;33105;47.964;7.982;2023-06-26T11:48:56;9.90;;;6.45;;
47365;SDS011;33105;47.964;7.982;2023-06-26T11:51:58;9.82;;;6.40;;
47365;SDS011;33105;47.964;7.982;2023-06-26T11:54:59;6.43;;;5.82;;
47365;SDS011;33105;47.964;7.982;2023-06-26T11:58:00;12.25;;;6.55;;
47365;SDS011;33105;47.964;7.982;2023-06-26T12:01:02;7.13;;;6.05;;
47365;SDS011;33105;47.964;7.982;2023-06-26T12:04:04;10.10;;;6.00;;
47365;SDS011;33105;47.964;7.982;2023-06-26T12:07:07;8.40;;;5.85;;
47365;SDS011;33105;47.964;7.982;2023-06-26T12:10:10;11.13;;;6.43;;
47365;SDS011;33105;47.964;7.982;2023-06-26T12:13:12;8.40;;;6.20;;
47365;SDS011;33105;47.964;7.982;2023-06-26T12:16:14;7.63;;;6.05;;
47365;SDS011;33105;47.964;7.982;2023-06-26T12:19:15;6.72;;;6.07;;
47365;SDS011;33105;47.964;7.982;2023-06-26T12:22:17;13.75;;;5.93;;
47365;SDS011;33105;47.964;7.982;2023-06-26T12:25:23;10.02;;;5.43;;
47365;SDS011;33105;47.964;7.982;2023-06-26T12:28:25;11.32;;;5.85;;
47365;SDS011;33105;47.964;7.982;2023-06-26T12:31:27;8.13;;;5.70;;
47365;SDS011;33105;47.964;7.982;2023-06-26T12:34:30;6.20;;;5.30;;
47365;SDS011;33105;47.964;7.982;2023-06-26T12:37:36;6.57;;;5.28;;
47365;SDS011;33105;47.964;7.982;2023-06-26T12:40:44;6.20;;;5.35;;
47365;SDS011;33105;47.964;7.982;2023-06-26T12:43:46;10.77;;;5.77;;
47365;SDS011;33105;47.964;7.982;2023-06-26T12:46:48;8.50;;;5.47;;
47365;SDS011;33105;47.964;7.982;2023-06-26T12:49:51;13.20;;;5.32;;
47365;SDS011;33105;47.964;7.982;2023-06-26T12:52:52;9.30;;;5.70;;
47365;SDS011;33105;47.964;7.982;2023-06-26T12:55:54;9.30;;;6.00;;
47365;SDS011;33105;47.964;7.982;2023-06-26T12:58:55;6.78;;;5.47;;
47365;SDS011;33105;47.964;7.982;2023-06-26T13:01:56;6.80;;;5.40;;
47365;SDS011;33105;47.964;7.982;2023-06-26T13:04:58;6.40;;;5.10;;
47365;SDS011;33105;47.964;7.982;2023-06-26T13:07:59;8.45;;;5.20;;
47365;SDS011;33105;47.964;7.982;2023-06-26T13:11:00;7.15;;;5.10;;
47365;SDS011;33105;47.964;7.982;2023-06-26T13:14:02;9.18;;;5.30;;
47365;SDS011;33105;47.964;7.982;2023-06-26T13:17:04;9.50;;;4.90;;
47365;SDS011;33105;47.964;7.982;2023-06-26T13:20:05;8.38;;;4.80;;
47365;SDS011;33105;47.964;7.982;2023-06-26T13:23:09;6.50;;;4.65;;
47365;SDS011;33105;47.964;7.982;2023-06-26T13:26:10;6.90;;;5.00;;
47365;SDS011;33105;47.964;7.982;2023-06-26T13:29:12;11.23;;;5.10;;
47365;SDS011;33105;47.964;7.982;2023-06-26T13:32:13;6.85;;;5.07;;
47365;SDS011;33105;47.964;7.982;2023-06-26T13:35:14;8.18;;;4.45;;
47365;SDS011;33105;47.964;7.982;2023-06-26T13:38:15;10.27;;;5.07;;
47365;SDS011;33105;47.964;7.982;2023-06-26T13:41:17;5.30;;;4.18;;
47365;SDS011;33105;47.964;7.982;2023-06-26T13:44:20;7.90;;;4.75;;
47365;SDS011;33105;47.964;7.982;2023-06-26T13:47:21;11.38;;;4.90;;
47365;SDS011;33105;47.964;7.982;2023-06-26T13:50:22;7.70;;;4.72;;
47365;SDS011;33105;47.964;7.982;2023-06-26T13:53:24;9.27;;;4.60;;
47365;SDS011;33105;47.964;7.982;2023-06-26T13:56:25;5.07;;;4.10;;
47365;SDS011;33105;47.964;7.982;2023-06-26T13:59:26;8.50;;;4.13;;
47365;SDS011;33105;47.964;7.982;2023-06-26T14:02:28;8.60;;;4.13;;
47365;SDS011;33105;47.964;7.982;2023-06-26T14:05:30;6.40;;;4.35;;
47365;SDS011;33105;47.964;7.982;2023-06-26T14:08:31;10.43;;;4.22;;
47365;SDS011;33105;47.964;7.982;2023-06-26T14:11:32;5.97;;;4.25;;
47365;SDS011;33105;47.964;7.982;2023-06-26T14:14:34;6.35;;;4.03;;
47365;SDS011;33105;47.964;7.982;2023-06-26T14:17:35;12.98;;;4.20;;
47365;SDS011;33105;47.964;7.982;2023-06-26T14:20:37;5.35;;;3.70;;
47365;SDS011;33105;47.964;7.982;2023-06-26T14:23:39;5.72;;;3.75;;
47365;SDS011;33105;47.964;7.982;2023-06-26T14:26:40;5.10;;;3.70;;
47365;SDS011;33105;47.964;7.982;2023-06-26T14:29:41;5.35;;;3.80;;
47365;SDS011;33105;47.964;7.982;2023-06-26T14:32:43;4.50;;;3.83;;
47365;SDS011;33105;47.964;7.982;2023-06-26T14:35:44;5.82;;;3.88;;
47365;SDS011;33105;47.964;7.982;2023-06-26T14:38:45;7.18;;;3.90;;
47365;SDS011;33105;47.964;7.982;2023-06-26T14:41:47;6.25;;;3.65;;
47365;SDS011;33105;47.964;7.982;2023-06-26T14:44:48;9.32;;;3.38;;
47365;SDS011;33105;47.964;7.982;2023-06-26T14:47:51;5.25;;;3.22;;
47365;SDS011;33105;47.964;7.982;2023-06-26T14:50:52;5.47;;;3.70;;
47365;SDS011;33105;47.964;7.982;2023-06-26T14:53:53;5.68;;;3.15;;
47365;SDS011;33105;47.964;7.982;2023-06-26T14:56:55;7.38;;;2.90;;
47365;SDS011;33105;47.964;7.982;2023-06-26T14:59:56;3.33;;;2.67;;
47365;SDS011;33105;47.964;7.982;2023-06-26T15:02:57;6.18;;;2.70;;
47365;SDS011;33105;47.964;7.982;2023-06-26T15:05:59;6.65;;;2.88;;
47365;SDS011;33105;47.964;7.982;2023-06-26T15:09:00;6.90;;;2.85;;
47365;SDS011;33105;47.964;7.982;2023-06-26T15:12:02;5.25;;;2.83;;
47365;SDS011;33105;47.964;7.982;2023-06-26T15:15:04;3.70;;;2.70;;
47365;SDS011;33105;47.964;7.982;2023-06-26T15:18:05;3.40;;;2.47;;
47365;SDS011;33105;47.964;7.982;2023-06-26T15:21:07;6.95;;;3.05;;
47365;SDS011;33105;47.964;7.982;2023-06-26T15:24:08;4.68;;;2.85;;
47365;SDS011;33105;47.964;7.982;2023-06-26T15:27:09;5.35;;;3.15;;
47365;SDS011;33105;47.964;7.982;2023-06-26T15:30:11;3.78;;;3.03;;
47365;SDS011;33105;47.964;7.982;2023-06-26T15:33:12;7.65;;;3.50;;
47365;SDS011;33105;47.964;7.982;2023-06-26T15:36:14;5.57;;;3.45;;
47365;SDS011;33105;47.964;7.982;2023-06-26T15:39:15;5.85;;;3.33;;
47365;SDS011;33105;47.964;7.982;2023-06-26T15:42:16;6.57;;;3.30;;
47365;SDS011;33105;47.964;7.982;2023-06-26T15:45:18;4.82;;;3.30;;
47365;SDS011;33105;47.964;7.982;2023-06-26T15:48:19;9.00;;;3.30;;
47365;SDS011;33105;47.964;7.982;2023-06-26T15:51:20;5.68;;;3.08;;
47365;SDS011;33105;47.964;7.982;2023-06-26T15:54:21;6.07;;;3.40;;
47365;SDS011;33105;47.964;7.982;2023-06-26T15:57:23;10.82;;;3.55;;
47365;SDS011;33105;47.964;7.982;2023-06-26T16:00:24;8.98;;;3.78;;
47365;SDS011;33105;47.964;7.982;2023-06-26T16:03:25;7.57;;;3.85;;
47365;SDS011;33105;47.964;7.982;2023-06-26T16:06:27;5.95;;;3.90;;
47365;SDS011;33105;47.964;7.982;2023-06-26T16:09:28;7.97;;;4.07;;
47365;SDS011;33105;47.964;7.982;2023-06-26T16:12:29;9.23;;;4.30;;
47365;SDS011;33105;47.964;7.982;2023-06-26T16:15:30;6.15;;;4.70;;
47365;SDS011;33105;47.964;7.982;2023-06-26T16:18:32;7.00;;;4.25;;
47365;SDS011;33105;47.964;7.982;2023-06-26T16:21:33;7.18;;;4.25;;
47365;SDS011;33105;47.964;7.982;2023-06-26T16:24:34;10.25;;;4.82;;
47365;SDS011;33105;47.964;7.982;2023-06-26T16:27:35;6.72;;;5.05;;
47365;SDS011;33105;47.964;7.982;2023-06-26T16:30:37;8.38;;;5.75;;
47365;SDS011;33105;47.964;7.982;2023-06-26T16:33:38;8.75;;;5.18;;
47365;SDS011;33105;47.964;7.982;2023-06-26T16:36:39;9.18;;;6.28;;
47365;SDS011;33105;47.964;7.982;2023-06-26T16:39:40;9.85;;;6.88;;
47365;SDS011;33105;47.964;7.982;2023-06-26T16:42:41;8.95;;;6.50;;
47365;SDS011;33105;47.964;7.982;2023-06-26T16:45:43;12.02;;;7.45;;
47365;SDS011;33105;47.964;7.982;2023-06-26T16:48:44;11.90;;;7.72;;
47365;SDS011;33105;47.964;7.982;2023-06-26T16:51:45;11.93;;;7.70;;
47365;SDS011;33105;47.964;7.982;2023-06-26T16:54:46;10.90;;;7.97;;
47365;SDS011;33105;47.964;7.982;2023-06-26T16:57:47;13.15;;;7.05;;
47365;SDS011;33105;47.964;7.982;2023-06-26T17:00:49;12.65;;;7.43;;
47365;SDS011;33105;47.964;7.982;2023-06-26T17:03:51;10.30;;;6.57;;
47365;SDS011;33105;47.964;7.982;2023-06-26T17:06:52;8.65;;;6.50;;
47365;SDS011;33105;47.964;7.982;2023-06-26T17:09:54;9.07;;;6.35;;
47365;SDS011;33105;47.964;7.982;2023-06-26T17:12:55;9.32;;;6.30;;
47365;SDS011;33105;47.964;7.982;2023-06-26T17:15:56;11.20;;;6.65;;
47365;SDS011;33105;47.964;7.982;2023-06-26T17:18:57;13.43;;;6.45;;
47365;SDS011;33105;47.964;7.982;2023-06-26T17:21:58;11.32;;;6.22;;
47365;SDS011;33105;47.964;7.982;2023-06-26T17:25:00;9.63;;;5.90;;
47365;SDS011;33105;47.964;7.982;2023-06-26T17:28:05;7.57;;;5.88;;
47365;SDS011;33105;47.964;7.982;2023-06-26T17:31:06;8.63;;;5.90;;
47365;SDS011;33105;47.964;7.982;2023-06-26T17:34:08;19.00;;;5.70;;
47365;SDS011;33105;47.964;7.982;2023-06-26T17:37:09;18.85;;;6.05;;
47365;SDS011;33105;47.964;7.982;2023-06-26T17:40:10;10.32;;;5.88;;
47365;SDS011;33105;47.964;7.982;2023-06-26T17:43:11;13.35;;;5.50;;
47365;SDS011;33105;47.964;7.982;2023-06-26T17:46:13;10.63;;;5.30;;
47365;SDS011;33105;47.964;7.982;2023-06-26T17:49:14;9.35;;;4.90;;
47365;SDS011;33105;47.964;7.982;2023-06-26T17:52:16;7.57;;;4.75;;
47365;SDS011;33105;47.964;7.982;2023-06-26T17:55:17;12.40;;;5.00;;
47365;SDS011;33105;47.964;7.982;2023-06-26T17:58:18;9.50;;;4.55;;
47365;SDS011;33105;47.964;7.982;2023-06-26T18:01:19;5.72;;;4.13;;
47365;SDS011;33105;47.964;7.982;2023-06-26T18:04:21;7.43;;;4.35;;
47365;SDS011;33105;47.964;7.982;2023-06-26T18:07:22;8.52;;;4.70;;
47365;SDS011;33105;47.964;7.982;2023-06-26T18:10:24;8.75;;;4.55;;
47365;SDS011;33105;47.964;7.982;2023-06-26T18:13:25;8.82;;;4.55;;
47365;SDS011;33105;47.964;7.982;2023-06-26T18:16:29;7.88;;;4.10;;
47365;SDS011;33105;47.964;7.982;2023-06-26T18:19:31;7.95;;;3.65;;
47365;SDS011;33105;47.964;7.982;2023-06-26T18:22:32;6.70;;;3.90;;